createdAt,value
2023-07-12T10:30:14.452Z,2.15
2023-07-12T10:32:48.710Z,1.33
2023-07-12T10:35:37.076Z,2.08
2023-07-12T10:38:15.255Z,1.60
2023-07-12T10:41:12.065Z,1.40
2023-07-12T10:43:46.072Z,1.55
2023-07-12T10:46:42.860Z,1.83
2023-07-12T10:49:18.513Z,1.58
2023-07-12T10:52:04.705Z,1.38
2023-07-12T10:54:32.423Z,1.65
2023-07-12T10:57:28.757Z,2.10
2023-07-12T11:00:18.707Z,2.85
2023-07-12T11:03:10.443Z,1.70
2023-07-12T11:05:42.070Z,1.48
2023-07-12T11:08:34.538Z,1.70
2023-07-12T11:11:22.272Z,1.50
2023-07-12T11:14:13.843Z,2.30
2023-07-12T11:17:06.038Z,1.70
2023-07-12T11:19:39.833Z,2.00
2023-07-12T11:22:44.353Z,1.95
2023-07-12T11:25:50.340Z,1.42
2023-07-12T11:28:24.179Z,1.70
2023-07-12T11:31:16.451Z,1.92
2023-07-12T11:34:06.953Z,1.75
2023-07-12T11:36:36.869Z,1.92
2023-07-12T11:39:14.640Z,3.08
2023-07-12T11:41:53.472Z,1.60
2023-07-12T11:44:21.129Z,2.55
2023-07-12T11:46:52.081Z,1.70
2023-07-12T11:49:27.774Z,1.50
2023-07-12T11:51:58.545Z,1.48
2023-07-12T11:54:27.280Z,1.58
2023-07-12T11:57:04.051Z,1.58
2023-07-12T11:59:37.815Z,1.38
2023-07-12T12:02:22.460Z,2.05
2023-07-12T12:05:00.567Z,2.08
2023-07-12T12:07:40.563Z,1.92
2023-07-12T12:10:16.772Z,1.95
2023-07-12T12:12:49.156Z,2.85
2023-07-12T12:15:24.678Z,1.77
2023-07-12T12:17:54.669Z,1.50
2023-07-12T12:20:29.857Z,2.13
2023-07-12T12:23:13.530Z,1.65
2023-07-12T12:25:48.098Z,1.73
2023-07-12T12:28:33.908Z,1.85
2023-07-12T12:31:32.277Z,1.50
2023-07-12T12:34:26.099Z,2.40
2023-07-12T12:37:08.702Z,2.78
2023-07-12T12:39:37.249Z,2.00
2023-07-12T12:42:19.738Z,1.60
2023-07-12T12:44:47.331Z,2.30
2023-07-12T12:47:21.004Z,1.60
2023-07-12T12:51:01.832Z,1.30
2023-07-12T12:55:18.150Z,1.40
2023-07-12T13:05:34.113Z,1.30
2023-07-12T13:16:07.591Z,1.50
2023-07-12T13:19:02.489Z,1.25
2023-07-12T13:21:23.061Z,1.40
2023-07-12T13:23:51.434Z,1.63
2023-07-12T13:26:22.065Z,1.98
2023-07-12T13:28:50.259Z,1.60
2023-07-12T13:31:20.290Z,1.48
2023-07-12T13:36:31.538Z,1.40
2023-07-12T13:46:46.948Z,1.70
2023-07-12T13:49:16.419Z,1.65
2023-07-12T13:51:44.901Z,1.42
2023-07-12T13:54:13.373Z,1.50
2023-07-12T14:01:45.389Z,1.60
2023-07-12T14:09:19.460Z,1.45
2023-07-12T14:11:48.533Z,1.60
2023-07-12T14:14:17.063Z,1.80
2023-07-12T14:16:44.998Z,1.55
2023-07-12T14:19:12.699Z,1.77
2023-07-12T14:21:40.413Z,1.35
2023-07-12T14:24:12.109Z,1.90
2023-07-12T14:26:39.714Z,2.45
2023-07-12T14:29:09.858Z,2.38
2023-07-12T14:31:56.286Z,2.08
2023-07-12T14:34:24.793Z,1.50
2023-07-12T14:36:52.390Z,1.45
2023-07-12T14:39:19.948Z,1.63
2023-07-12T14:41:47.576Z,1.20
2023-07-12T14:44:17.485Z,1.42
2023-07-12T14:46:45.925Z,1.45
2023-07-12T14:49:13.674Z,1.60
2023-07-12T14:51:43.496Z,1.42
2023-07-12T14:54:17.805Z,1.70
2023-07-12T14:56:45.411Z,1.83
2023-07-12T14:59:13.476Z,1.50
2023-07-12T15:01:41.155Z,1.55
2023-07-12T15:04:14.797Z,1.63
2023-07-12T15:06:42.468Z,1.67
2023-07-12T15:10:03.964Z,1.70
2023-07-12T15:11:57.601Z,1.70
2023-07-12T15:14:25.169Z,1.60
2023-07-12T15:16:55.806Z,1.67
2023-07-12T15:19:23.598Z,1.42
2023-07-12T15:21:51.187Z,1.38
2023-07-12T15:24:18.691Z,1.50
2023-07-12T15:26:46.297Z,1.40
2023-07-12T15:29:16.271Z,1.63
2023-07-12T15:31:44.202Z,2.10
2023-07-12T15:34:12.302Z,1.80
2023-07-12T15:36:39.956Z,1.30
2023-07-12T15:39:07.540Z,1.63
2023-07-12T15:41:36.482Z,1.88
2023-07-12T15:44:06.173Z,1.80
2023-07-12T15:46:34.046Z,1.30
2023-07-12T15:49:02.270Z,2.20
2023-07-12T15:51:38.176Z,2.00
2023-07-12T15:54:27.389Z,1.50
2023-07-12T15:56:55.387Z,1.50
2023-07-12T15:59:27.920Z,1.45
2023-07-12T16:01:57.926Z,8.80
2023-07-12T16:04:25.778Z,3.88
2023-07-12T16:06:53.444Z,2.15
2023-07-12T16:09:21.095Z,1.65
2023-07-12T16:11:48.834Z,1.73
2023-07-12T16:14:22.811Z,2.10
2023-07-12T16:16:51.810Z,1.27
2023-07-12T16:19:19.868Z,1.58
2023-07-12T16:21:48.373Z,1.30
2023-07-12T16:24:17.978Z,1.30
2023-07-12T16:26:45.960Z,0.88
2023-07-12T16:29:14.153Z,0.82
2023-07-12T16:31:46.524Z,1.58
2023-07-12T16:34:17.365Z,0.70
2023-07-12T16:36:46.180Z,1.00
2023-07-12T16:39:14.791Z,0.98
2023-07-12T16:41:44.340Z,1.08
2023-07-12T16:44:20.683Z,0.82
2023-07-12T16:46:49.472Z,1.08
2023-07-12T16:49:18.228Z,1.00
2023-07-12T16:51:52.472Z,1.27
2023-07-12T16:54:21.835Z,1.40
2023-07-12T16:56:49.708Z,1.02
2023-07-12T16:59:19.096Z,1.30
2023-07-12T17:01:47.354Z,1.27
2023-07-12T17:04:18.636Z,1.10
2023-07-12T17:06:47.479Z,1.20
2023-07-12T17:09:26.638Z,1.15
2023-07-12T17:11:55.737Z,1.05
2023-07-12T17:14:23.414Z,1.30
2023-07-12T17:16:51.251Z,0.93
2023-07-12T17:19:21.332Z,1.10
2023-07-12T17:21:48.964Z,0.82
2023-07-12T17:24:18.611Z,2.75
2023-07-12T17:26:46.672Z,8.52
2023-07-12T17:29:15.319Z,6.70
2023-07-12T17:31:45.633Z,1.90
2023-07-12T17:34:28.019Z,2.00
2023-07-12T17:36:57.248Z,1.70
2023-07-12T17:39:25.596Z,1.60
2023-07-12T17:41:54.390Z,1.52
2023-07-12T17:44:22.547Z,2.00
2023-07-12T17:46:52.505Z,2.47
2023-07-12T17:49:20.417Z,1.40
2023-07-12T17:51:48.159Z,1.45
2023-07-12T17:54:17.069Z,1.10
2023-07-12T17:56:45.162Z,1.50
2023-07-12T17:59:15.346Z,1.67
2023-07-12T18:01:44.087Z,2.10
2023-07-12T18:04:16.017Z,3.35
2023-07-12T18:06:43.774Z,3.92
2023-07-12T18:09:11.756Z,5.35
2023-07-12T18:11:42.156Z,6.68
2023-07-12T18:14:23.398Z,7.28
2023-07-12T18:16:53.055Z,7.60
2023-07-12T18:19:20.927Z,8.27
2023-07-12T18:21:49.477Z,8.32
2023-07-12T18:24:22.529Z,7.00
2023-07-12T18:26:52.484Z,12.77
2023-07-12T18:29:20.383Z,6.35
2023-07-12T18:31:48.355Z,4.75
2023-07-12T18:34:16.620Z,3.83
2023-07-12T18:36:45.164Z,2.90
2023-07-12T18:39:16.559Z,2.80
2023-07-12T18:41:44.180Z,2.80
2023-07-12T18:44:13.117Z,2.20
2023-07-12T18:46:41.038Z,2.17
2023-07-12T18:49:08.943Z,2.50
2023-07-12T18:51:36.798Z,3.58
2023-07-12T18:54:06.760Z,6.57
2023-07-12T18:56:36.482Z,3.03
2023-07-12T18:59:06.259Z,2.55
2023-07-12T19:01:34.494Z,2.40
2023-07-12T19:04:06.026Z,2.75
2023-07-12T19:06:36.740Z,2.13
2023-07-12T19:09:06.719Z,2.47
2023-07-12T19:11:51.075Z,2.80
2023-07-12T19:14:21.022Z,2.50
2023-07-12T19:16:49.884Z,2.03
2023-07-12T19:19:17.963Z,2.33
2023-07-12T19:21:47.238Z,2.08
2023-07-12T19:24:15.291Z,2.38
2023-07-12T19:26:43.064Z,4.07
2023-07-12T19:29:10.903Z,2.67
2023-07-12T19:31:48.948Z,2.33
2023-07-12T19:34:22.712Z,2.05
2023-07-12T19:36:52.318Z,2.90
2023-07-12T19:39:20.351Z,2.15
2023-07-12T19:41:49.468Z,1.85
2023-07-12T19:44:18.008Z,2.47
2023-07-12T19:46:46.662Z,2.70
2023-07-12T19:49:15.314Z,1.90
2023-07-12T19:51:45.185Z,2.10
2023-07-12T19:54:18.346Z,2.00
2023-07-12T19:56:46.704Z,2.20
2023-07-12T19:59:14.925Z,2.83
2023-07-12T20:01:42.898Z,2.70
2023-07-12T20:04:10.635Z,2.03
2023-07-12T20:06:38.390Z,2.13
2023-07-12T20:09:07.258Z,1.77
2023-07-12T20:11:36.261Z,2.15
2023-07-12T20:14:04.679Z,2.15
2023-07-12T20:16:33.784Z,2.08
2023-07-12T20:19:01.968Z,2.00
2023-07-12T20:21:36.567Z,1.88
2023-07-12T20:24:04.782Z,1.92
2023-07-12T20:26:33.961Z,1.98
2023-07-12T20:29:02.066Z,2.05
2023-07-12T20:31:29.862Z,2.28
2023-07-12T20:33:57.706Z,2.17
2023-07-12T20:36:25.644Z,1.83
2023-07-12T20:38:54.092Z,2.20
2023-07-12T20:41:21.884Z,2.13
2023-07-12T20:43:49.628Z,1.80
2023-07-12T20:46:17.336Z,2.15
2023-07-12T20:48:45.218Z,2.47
2023-07-12T20:51:17.693Z,2.20
2023-07-12T20:53:50.368Z,2.00
2023-07-12T20:56:22.918Z,1.90
2023-07-12T20:58:51.462Z,2.10
2023-07-12T21:01:22.691Z,2.42
2023-07-12T21:03:52.007Z,2.28
2023-07-12T21:06:20.933Z,2.45
2023-07-12T21:08:49.391Z,1.92
2023-07-12T21:11:18.737Z,1.90
2023-07-12T21:13:46.493Z,2.00
2023-07-12T21:16:16.475Z,1.88
2023-07-12T21:18:45.634Z,1.95
2023-07-12T21:21:13.592Z,1.90
2023-07-12T21:23:41.744Z,3.60
2023-07-12T21:26:09.903Z,2.15
2023-07-12T21:28:38.355Z,1.98
2023-07-12T21:31:08.793Z,2.28
2023-07-12T21:33:36.759Z,2.63
2023-07-12T21:36:06.330Z,1.90
2023-07-12T21:38:35.081Z,2.03
2023-07-12T21:41:12.919Z,1.92
2023-07-12T21:43:41.491Z,1.73
2023-07-12T21:46:11.549Z,2.22
2023-07-12T21:48:39.447Z,2.00
2023-07-12T21:51:07.178Z,1.55
2023-07-12T21:53:34.881Z,2.55
2023-07-12T21:56:02.792Z,2.30
2023-07-12T21:58:30.530Z,4.75
2023-07-12T22:00:58.305Z,2.10
2023-07-12T22:03:26.176Z,2.72
2023-07-12T22:05:54.088Z,2.45
2023-07-12T22:08:21.859Z,2.08
2023-07-12T22:10:50.172Z,1.95
2023-07-12T22:13:17.872Z,2.17
2023-07-12T22:15:45.551Z,2.10
2023-07-12T22:18:13.347Z,2.10
2023-07-12T22:20:40.975Z,2.25
2023-07-12T22:23:08.735Z,1.63
2023-07-12T22:25:37.072Z,1.70
2023-07-12T22:28:05.690Z,1.50
2023-07-12T22:30:36.197Z,2.50
2023-07-12T22:33:04.414Z,2.40
2023-07-12T22:35:33.290Z,1.70
2023-07-12T22:38:01.552Z,2.05
2023-07-12T22:40:30.390Z,2.17
2023-07-12T22:42:59.111Z,1.73
2023-07-12T22:45:28.158Z,1.77
2023-07-12T22:47:56.015Z,2.38
2023-07-12T22:50:24.138Z,2.08
2023-07-12T22:52:52.386Z,2.10
2023-07-12T22:55:20.737Z,2.05
2023-07-12T22:57:48.711Z,1.75
2023-07-12T23:00:19.921Z,2.25
2023-07-12T23:02:49.168Z,2.42
2023-07-12T23:05:19.405Z,3.85
2023-07-12T23:07:48.353Z,1.58
2023-07-12T23:10:21.307Z,2.10
2023-07-12T23:12:50.398Z,1.85
2023-07-12T23:15:21.878Z,2.17
2023-07-12T23:17:52.521Z,2.67
2023-07-12T23:20:21.381Z,1.80
2023-07-12T23:22:49.159Z,1.60
2023-07-12T23:25:26.338Z,1.63
2023-07-12T23:27:55.806Z,1.25
2023-07-12T23:30:24.994Z,1.40
2023-07-12T23:32:53.305Z,1.63
2023-07-12T23:35:21.258Z,1.65
2023-07-12T23:37:48.881Z,1.67
2023-07-12T23:40:16.544Z,1.48
2023-07-12T23:42:44.163Z,1.80
2023-07-12T23:45:12.421Z,1.63
2023-07-12T23:47:40.194Z,1.65
2023-07-12T23:50:08.424Z,2.00
2023-07-12T23:52:36.010Z,1.70
2023-07-12T23:55:04.205Z,1.80
2023-07-12T23:57:33.001Z,1.88
